Date,TemperatureHighF,TemperatureAvgF,TemperatureLowF,DewpointHighF,DewpointAvgF,DewpointLowF,HumidityHigh,HumidityAvg,HumidityLow,PressureMaxIn,PressureMinIn,WindSpeedMaxMPH,WindSpeedAvgMPH,GustSpeedMaxMPH,PrecipitationSumIn
2013-1-1,30.4,19.2,10.2,17.5,10.5,4.4,83,67,44,29.73,29.60,3,1,7,0.00
2013-1-2,33.3,23.3,16.9,13.6,9.4,4.4,65,51,36,29.86,29.71,5,2,8,0.00
2013-1-3,37.0,23.4,10.8,11.1,6.8,-0.4,66,47,27,29.86,29.75,4,2,7,0.00
2013-1-4,43.9,25.9,14.7,18.3,12.4,5.7,72,55,30,29.78,29.62,3,1,5,0.00
2013-1-5,40.5,25.3,15.4,19.2,13.2,8.1,73,58,36,29.87,29.65,7,1,12,0.00
2013-1-6,42.6,25.3,10.2,17.8,11.4,4.0,75,55,25,29.84,29.55,2,1,4,0.00
2013-1-7,50.2,34.4,23.2,18.1,15.1,13.0,65,44,20,29.63,29.44,4,1,6,0.00
2013-1-8,49.8,40.1,24.6,21.8,19.2,15.2,66,41,28,29.81,29.41,10,3,22,0.00
2013-1-9,50.9,34.2,22.1,24.2,19.9,15.7,74,55,32,29.88,29.63,4,1,6,0.00
2013-1-10,32.2,24.7,19.2,22.9,17.5,13.6,77,71,65,29.63,29.11,2,1,4,0.00
2013-1-11,40.6,25.6,10.9,24.5,14.5,2.6,79,61,26,29.40,28.98,9,3,19,0.00
2013-1-12,21.0,12.8,5.9,9.2,4.7,0.4,79,67,54,29.60,29.40,5,2,9,0.00
2013-1-13,20.1,10.1,2.8,8.0,2.9,-2.5,78,70,55,29.69,29.57,4,1,6,0.00
2013-1-14,14.7,6.2,0.9,3.7,-0.9,-4.6,78,70,48,29.72,29.63,4,0,6,0.00
2013-1-15,35.6,19.6,-1.7,19.9,8.0,-6.3,80,60,39,29.71,29.63,4,1,11,0.00
2013-1-16,52.7,36.9,23.9,25.8,20.0,14.8,69,49,31,29.92,29.70,5,2,10,0.00
2013-1-17,50.0,31.1,19.2,24.0,18.6,13.9,79,60,29,30.02,29.81,4,1,9,0.00
2013-1-18,55.0,38.0,21.7,18.4,12.8,8.0,71,38,15,29.81,29.65,9,2,26,0.00
2013-1-19,57.4,46.1,31.5,14.5,9.1,4.2,37,20,12,29.83,29.66,9,3,19,0.00
2013-1-20,48.7,32.4,21.0,17.6,13.6,10.3,68,44,23,29.84,29.71,7,2,11,0.00
2013-1-21,54.5,34.8,15.6,23.7,12.8,2.5,79,45,14,29.81,29.65,8,3,22,0.00
2013-1-22,61.2,44.9,30.0,14.8,5.7,-6.7,35,19,5,29.76,29.60,10,3,19,0.00
2013-1-23,63.7,44.9,28.2,16.7,12.1,6.0,37,25,12,29.79,29.71,6,2,14,0.00
2013-1-24,61.9,43.5,24.3,28.3,19.8,10.3,62,38,19,29.76,29.58,11,3,19,0.00
2013-1-25,53.2,39.1,29.3,29.7,25.2,21.4,71,56,39,29.78,29.68,4,1,6,0.00
2013-1-26,53.8,40.5,28.0,35.3,28.1,22.4,80,62,39,29.68,29.40,2,1,6,0.00
2013-1-27,56.3,43.1,33.6,37.9,30.6,20.7,85,63,41,29.42,29.35,5,2,9,0.00
2013-1-28,50.9,35.9,26.6,30.4,24.7,18.4,80,63,38,29.38,29.23,7,2,13,0.00
2013-1-29,37.6,27.4,16.3,23.7,15.4,4.8,82,59,36,29.55,29.32,6,1,17,0.14
2013-1-30,43.0,28.9,12.2,18.3,11.5,3.2,66,46,30,29.55,29.40,11,4,26,0.00
2013-1-31,48.7,35.7,26.1,24.3,19.5,15.0,68,50,30,29.72,29.48,12,3,21,0.00
2013-2-1,49.8,35.2,22.5,25.3,19.4,16.3,81,53,29,29.77,29.63,10,3,18,0.00
2013-2-2,55.9,35.8,20.3,25.9,18.4,14.3,77,51,20,29.90,29.76,7,2,12,0.00
2013-2-3,51.3,36.7,23.2,23.3,16.3,10.5,65,43,19,29.85,29.51,8,2,18,0.00
2013-2-4,55.6,41.2,29.3,17.7,14.0,9.5,49,31,19,29.59,29.46,9,2,17,0.00
2013-2-5,59.9,45.0,29.8,27.1,20.4,13.4,51,36,25,29.66,29.48,7,2,13,0.00
2013-2-6,55.8,42.0,30.6,32.2,24.9,19.7,80,52,28,29.69,29.44,8,2,10,0.00
2013-2-7,47.8,34.7,23.9,30.0,21.6,14.2,84,59,31,29.76,29.63,4,1,8,0.00
2013-2-8,50.4,32.0,19.2,20.0,14.2,11.0,68,48,20,29.63,29.34,4,1,8,0.00
2013-2-9,40.3,30.4,21.4,26.9,19.7,11.9,76,62,42,29.35,29.20,4,1,9,0.00
2013-2-10,42.6,30.3,23.9,22.7,17.6,12.6,79,58,33,29.65,29.23,5,2,12,0.00
2013-2-11,32.9,24.7,16.3,18.3,15.2,9.8,74,64,49,29.66,29.57,4,1,8,0.00
2013-2-12,42.3,27.9,12.0,15.7,8.3,5.0,74,43,20,29.63,29.59,4,2,9,0.00
2013-2-13,47.8,35.4,21.4,18.9,14.1,7.5,55,39,26,29.63,29.50,9,3,17,0.00
2013-2-14,35.2,28.5,19.9,23.8,18.4,13.6,77,63,39,29.86,29.60,8,1,12,0.00
2013-2-15,42.6,27.9,15.3,23.2,15.7,9.9,79,60,27,29.86,29.79,6,2,11,0.06
2013-2-16,54.5,42.3,21.0,22.2,17.4,13.5,74,36,22,29.79,29.58,9,4,19,0.00
2013-2-17,60.8,43.3,28.9,18.4,13.7,10.2,50,30,13,29.58,29.22,8,3,18,0.00
2013-2-18,42.3,31.6,20.7,19.9,12.0,5.9,68,43,23,29.68,29.38,8,3,17,0.00
2013-2-19,42.1,29.4,19.2,17.0,12.5,6.0,58,46,30,29.68,29.42,4,1,8,0.00
2013-2-20,39.2,28.2,21.0,26.3,17.8,12.7,78,63,41,29.43,29.27,5,2,12,0.00
2013-2-21,37.6,26.1,17.4,20.9,17.4,11.8,79,68,46,29.50,29.34,4,2,6,0.17
2013-2-22,39.9,25.2,13.5,21.6,15.8,9.2,82,66,44,29.56,29.42,5,1,9,0.06
2013-2-23,44.6,28.1,12.7,25.6,17.1,7.0,78,62,39,29.45,29.26,5,1,9,0.00
2013-2-24,34.9,30.3,26.1,26.5,24.2,19.4,82,76,64,29.69,29.35,6,1,11,0.00
2013-2-25,36.1,23.8,9.3,21.6,15.3,4.9,82,68,47,29.69,29.45,4,1,8,0.31
2013-2-26,46.4,29.7,15.6,28.3,20.7,11.6,83,68,46,29.71,29.41,4,1,7,0.08
2013-2-27,39.2,26.3,15.8,17.4,13.1,8.1,73,56,32,29.81,29.71,4,1,9,0.00
2013-2-28,47.7,33.9,18.9,20.6,13.7,7.1,61,41,26,29.82,29.73,9,3,18,0.00
2013-3-1,52.9,37.5,23.2,25.3,20.7,14.0,66,49,31,29.89,29.78,9,1,13,0.00
2013-3-2,59.2,44.2,27.5,31.2,25.5,20.9,74,49,28,29.88,29.66,6,1,12,0.00
2013-3-3,62.8,48.7,35.8,29.0,26.2,22.7,59,42,24,29.66,29.31,9,3,27,0.00
2013-3-4,48.0,33.1,18.3,29.5,22.8,13.5,81,65,40,29.80,29.32,8,3,19,0.00
2013-3-5,39.0,25.1,11.7,20.4,15.1,7.1,81,64,38,29.84,29.72,4,1,8,0.03
2013-3-6,55.9,35.6,20.7,31.3,23.7,15.8,81,63,32,29.73,29.48,4,1,8,0.00
2013-3-7,61.3,42.6,27.5,32.6,26.4,22.0,78,55,26,29.60,29.49,5,1,10,0.00
2013-3-8,49.8,38.4,28.9,31.8,27.9,22.6,77,65,48,29.60,29.34,4,1,7,0.00
2013-3-9,38.3,33.8,21.9,32.1,28.1,17.8,84,78,72,29.69,29.29,5,0,9,0.14
2013-3-10,46.9,32.3,17.1,24.6,19.4,12.5,83,59,33,29.72,29.62,4,1,9,0.25
2013-3-11,54.9,42.0,33.4,29.4,23.9,18.3,81,49,29,29.75,29.53,9,3,25,0.00
2013-3-12,44.1,33.6,28.2,29.0,25.4,22.4,82,71,47,29.89,29.75,3,1,8,0.11
2013-3-13,61.7,41.8,25.3,36.5,27.3,22.2,87,60,27,29.87,29.76,5,2,13,0.14
2013-3-14,70.7,52.7,37.9,33.2,27.2,23.6,59,39,17,29.90,29.76,6,2,11,0.00
2013-3-15,74.7,60.8,47.5,31.0,27.6,24.3,43,28,18,29.76,29.52,8,3,17,0.00
2013-3-16,57.7,47.7,39.2,34.8,30.5,27.9,64,51,37,29.65,29.46,7,2,13,0.00
2013-3-17,60.6,44.5,30.6,31.4,24.6,16.5,74,46,21,29.47,29.21,9,4,23,0.00
2013-3-18,49.5,39.9,28.9,20.2,15.1,8.4,46,33,25,29.55,29.47,10,4,21,0.00
2013-3-19,54.5,44.0,28.4,16.6,9.5,2.0,52,23,12,29.94,29.54,8,5,21,0.00
2013-3-20,52.9,36.0,20.8,25.0,19.5,12.8,70,50,31,29.92,29.38,4,1,9,0.00
2013-3-21,60.6,44.4,33.4,33.1,23.2,13.0,63,43,23,29.45,29.19,9,3,17,0.00
2013-3-22,47.3,34.1,26.4,28.3,20.1,11.8,81,55,36,29.55,29.34,7,3,12,0.00
2013-3-23,33.4,25.2,17.4,23.7,16.8,9.3,81,68,48,29.75,29.53,6,2,13,0.00
2013-3-24,41.5,23.3,5.4,17.8,11.2,0.4,79,59,32,29.79,29.66,4,1,7,0.14
2013-3-25,37.4,26.2,16.2,18.5,14.5,10.1,77,59,41,29.83,29.76,5,1,10,0.03
2013-3-26,49.3,32.8,16.2,28.6,20.6,10.0,76,60,38,29.76,29.54,4,1,8,0.03
2013-3-27,54.3,40.3,28.4,36.3,29.6,23.0,81,66,47,29.71,29.62,4,1,9,0.00
2013-3-28,64.4,45.9,30.6,35.2,31.0,26.8,85,60,32,29.75,29.66,5,1,10,0.00
2013-3-29,68.5,51.4,37.8,35.1,31.0,28.9,71,48,25,29.75,29.68,6,2,10,0.00
2013-3-30,66.7,50.5,36.0,37.0,31.0,26.6,72,50,23,29.84,29.65,11,3,19,0.00
2013-3-31,68.2,50.5,31.8,34.0,29.1,23.5,78,48,20,29.83,29.57,8,2,15,0.00
2013-4-1,53.8,42.9,31.6,34.2,29.2,24.0,74,58,42,29.78,29.65,5,2,9,0.00
2013-4-2,43.3,39.7,38.1,34.9,32.6,30.3,85,75,67,29.75,29.68,3,1,6,0.47
2013-4-3,60.4,48.0,37.6,39.8,34.8,29.8,86,63,36,29.76,29.67,4,1,10,0.03
2013-4-4,68.9,53.9,36.5,38.5,32.5,28.9,74,46,25,29.78,29.63,5,2,9,0.00
2013-4-5,76.1,60.5,49.3,36.3,30.5,25.9,53,33,19,29.63,29.37,12,3,19,0.00
2013-4-6,69.1,55.9,42.8,31.9,27.6,22.9,45,33,22,29.59,29.49,10,3,24,0.00
2013-4-7,65.8,53.3,39.7,34.1,30.1,25.4,69,42,23,29.51,29.33,10,3,20,0.00
2013-4-8,64.2,47.4,31.8,35.6,30.7,26.1,80,54,31,29.46,29.10,14,3,28,0.03
2013-4-9,31.5,23.7,16.2,26.4,16.5,9.9,80,71,57,29.78,29.46,5,2,9,0.00
2013-4-10,41.4,22.5,5.9,20.6,12.1,0.7,78,63,37,29.75,29.48,2,0,5,0.28
2013-4-11,58.5,38.8,19.0,36.6,26.4,14.4,81,63,37,29.54,29.35,6,2,12,0.08
2013-4-12,61.5,45.2,35.8,33.6,31.5,28.9,78,60,32,29.62,29.50,9,2,29,0.00
2013-4-13,67.8,49.2,30.2,37.8,30.5,26.1,84,53,22,29.59,29.09,6,2,13,0.03
2013-4-14,51.8,43.4,36.3,37.7,22.7,14.1,77,43,22,29.39,29.19,8,4,16,0.08
2013-4-15,40.8,32.8,25.7,27.7,23.2,18.0,79,66,38,29.63,29.37,6,2,12,0.00
2013-4-16,43.7,32.1,25.7,28.6,24.5,20.7,82,72,49,29.63,29.48,5,1,9,0.03
2013-4-17,37.2,29.7,23.0,28.3,23.8,17.8,85,77,67,29.76,29.54,6,2,10,0.00
2013-4-18,45.0,29.7,13.1,21.3,16.5,7.9,79,57,33,29.74,29.68,4,1,8,0.36
2013-4-19,55.8,39.9,21.6,27.4,21.9,15.0,76,50,29,29.72,29.57,8,2,15,0.00
2013-4-20,61.5,47.2,32.4,34.2,29.9,25.1,74,52,34,29.65,29.53,5,2,12,0.00
2013-4-21,65.7,49.4,32.0,33.0,28.3,23.9,78,48,21,29.70,29.61,6,2,12,0.00
2013-4-22,53.8,36.6,25.3,37.5,27.2,20.6,80,68,50,29.89,29.53,8,2,15,0.11
2013-4-23,46.2,31.4,22.5,23.7,19.8,16.9,81,62,36,29.86,29.73,3,1,5,0.34
2013-4-24,57.0,37.7,18.9,28.4,21.1,14.3,82,54,23,29.81,29.71,5,2,13,0.03
2013-4-25,67.8,46.6,27.1,32.3,25.7,18.7,68,46,22,29.78,29.54,5,2,10,0.00
2013-4-26,67.8,54.5,39.2,30.5,26.1,23.3,53,34,20,29.84,29.63,5,3,10,0.00
2013-4-27,75.2,59.7,40.8,31.9,25.2,21.0,50,28,15,29.83,29.67,6,3,10,0.00
2013-4-28,80.4,65.6,48.0,37.2,29.6,22.2,37,26,17,29.68,29.50,7,2,12,0.00
2013-4-29,81.7,66.2,47.8,41.8,33.7,29.0,59,32,16,29.61,29.30,6,2,14,0.00
2013-4-30,61.5,53.1,38.1,40.9,35.0,29.6,81,51,33,29.66,29.31,8,3,15,0.25
2013-5-1,40.8,34.6,27.1,34.0,28.0,21.9,84,76,59,30.17,29.66,4,1,8,0.17
2013-5-2,48.6,35.6,21.0,27.1,22.1,15.9,80,58,34,30.22,30.00,3,1,7,0.39
2013-5-3,62.4,45.2,26.2,34.8,28.5,21.5,81,54,32,30.00,29.71,4,1,8,0.00
2013-5-4,61.7,48.9,33.8,36.4,30.5,26.1,74,50,34,29.84,29.71,5,2,9,0.00
2013-5-5,62.1,48.1,34.5,39.0,30.5,24.5,68,51,31,29.84,29.71,5,1,14,0.00
2013-5-6,69.1,54.9,38.5,38.6,35.4,31.4,77,50,30,29.73,29.56,5,2,12,0.00
2013-5-7,75.6,57.3,44.6,49.9,40.2,33.4,78,55,29,29.68,29.54,8,2,14,0.11
2013-5-8,65.8,51.7,44.1,46.6,41.5,34.7,86,69,47,29.74,29.60,9,2,13,0.58
2013-5-9,65.3,52.2,43.7,48.8,42.9,37.3,87,72,43,29.83,29.71,10,1,16,0.17
2013-5-10,69.1,55.4,39.4,44.1,38.7,33.5,84,56,33,29.92,29.79,6,2,11,0.00
2013-5-11,71.4,58.4,44.4,46.7,39.6,33.9,70,50,35,30.01,29.83,6,2,13,0.00
2013-5-12,79.2,66.2,50.0,44.1,38.8,35.5,63,39,24,29.86,29.74,6,2,10,0.00
2013-5-13,86.4,73.8,54.9,47.2,40.8,34.7,52,31,21,29.81,29.69,6,3,13,0.00
2013-5-14,86.2,72.6,59.0,46.7,40.8,36.0,44,32,22,29.69,29.58,12,3,28,0.00
2013-5-15,84.4,68.2,53.8,49.6,43.0,36.2,69,42,24,29.65,29.55,9,2,15,0.00
2013-5-16,84.2,68.0,53.6,51.2,44.5,38.4,72,46,22,29.62,29.46,6,2,14,0.00
2013-5-17,86.0,70.2,51.4,49.9,40.4,27.9,69,38,16,29.57,29.42,6,2,11,0.00
2013-5-18,78.6,68.5,55.8,43.3,35.2,26.1,49,30,21,29.56,29.43,9,3,17,0.00
2013-5-19,71.4,60.5,50.9,37.4,32.9,29.0,54,36,23,29.53,29.42,7,3,15,0.00
2013-5-20,66.4,57.2,48.7,48.0,42.1,32.4,77,57,43,29.67,29.50,5,1,11,0.06
2013-5-21,73.9,58.2,39.9,40.6,36.5,32.3,81,49,24,29.69,29.52,6,2,12,0.00
2013-5-22,75.4,60.0,45.3,50.9,40.5,33.1,74,51,28,29.72,29.54,6,2,12,0.03
2013-5-23,71.8,59.8,51.1,51.3,47.0,44.1,79,64,47,29.75,29.61,4,2,8,0.00
2013-5-24,81.0,64.5,46.0,51.9,45.5,41.0,84,54,27,29.66,29.57,5,1,9,0.00
2013-5-25,86.5,71.3,54.3,50.6,43.3,34.9,62,39,17,29.66,29.53,5,2,9,0.00
2013-5-26,87.1,71.3,55.0,45.0,36.7,29.0,56,30,16,29.59,29.52,6,2,16,0.00
2013-5-27,84.7,70.6,53.6,40.5,34.0,25.6,44,27,15,29.53,29.42,6,2,12,0.00
2013-5-28,78.6,65.5,50.4,48.4,39.8,31.7,57,40,22,29.51,29.25,4,1,9,0.00
2013-5-29,67.5,58.1,51.3,48.1,42.3,32.8,80,57,33,29.39,29.29,7,2,13,0.14
2013-5-30,70.0,59.0,45.7,38.9,33.7,28.7,66,41,22,29.53,29.35,8,2,24,0.00
2013-5-31,72.1,61.3,47.5,30.4,26.7,23.3,47,27,16,29.66,29.49,7,3,15,0.00
2013-6-1,72.3,60.0,46.0,43.3,37.6,26.6,63,44,33,29.86,29.66,4,1,8,0.00
2013-6-2,80.8,64.2,45.7,44.2,38.3,31.6,62,41,23,29.85,29.50,5,1,10,0.00
2013-6-3,89.8,73.4,52.2,48.5,37.2,31.3,54,29,15,29.60,29.42,8,2,16,0.00
2013-6-4,72.5,62.2,51.8,52.1,44.4,32.2,78,53,31,29.87,29.59,8,1,17,0.08
2013-6-5,61.5,53.2,47.8,49.1,45.8,42.6,83,76,61,29.87,29.78,2,0,5,0.03
2013-6-6,77.2,61.5,43.3,50.4,44.0,39.1,86,57,30,29.79,29.69,3,1,7,0.00
2013-6-7,81.1,66.0,50.9,51.2,45.4,40.7,72,49,32,29.78,29.49,6,1,14,0.00
2013-6-8,78.4,68.6,58.5,52.6,45.9,40.0,58,45,35,29.72,29.45,6,2,17,0.00
2013-6-9,85.5,69.9,50.2,51.9,44.9,38.8,73,44,23,29.71,29.59,4,1,11,0.00
2013-6-10,95.2,78.6,64.2,55.6,46.0,37.8,53,33,20,29.63,29.53,4,1,10,0.00
2013-6-11,95.0,78.5,61.0,52.6,40.1,29.8,56,29,10,29.64,29.48,6,2,15,0.00
2013-6-12,88.3,75.5,59.0,52.5,41.6,30.1,50,31,20,29.80,29.64,6,2,12,0.00
2013-6-13,81.0,68.8,59.0,64.2,54.9,50.7,75,62,43,29.80,29.60,4,1,8,0.00
2013-6-14,87.6,73.5,59.5,56.6,48.0,40.9,70,43,23,29.67,29.56,5,2,11,0.00
2013-6-15,80.1,69.3,56.3,53.8,49.4,45.3,68,50,38,29.77,29.65,4,1,9,0.00
2013-6-16,79.7,69.2,57.0,57.3,47.7,39.5,76,49,27,29.81,29.71,7,1,22,0.00
2013-6-17,76.8,66.8,53.6,60.9,49.3,40.6,70,54,39,29.83,29.71,5,1,11,0.08
2013-6-18,80.8,68.6,55.0,56.0,51.7,47.9,82,57,32,29.81,29.58,5,1,10,0.00
2013-6-19,88.7,71.3,53.6,54.6,47.3,33.1,78,47,19,29.68,29.37,4,1,8,0.00
2013-6-20,84.4,73.2,56.3,48.3,40.5,27.7,57,32,20,29.61,29.45,5,1,10,0.00
2013-6-21,88.0,74.3,59.9,59.1,47.9,38.3,59,41,21,29.60,29.47,7,1,17,0.00
2013-6-22,80.8,69.4,55.8,56.3,48.7,42.4,68,49,26,29.65,29.45,4,1,9,0.00
2013-6-23,79.5,68.1,53.4,54.2,48.4,42.3,72,51,35,29.71,29.52,5,1,9,0.00
2013-6-24,86.5,73.3,60.3,54.4,46.3,33.2,67,40,22,29.61,29.45,4,1,11,0.00
2013-6-25,90.1,77.6,63.5,47.9,41.0,33.1,45,28,20,29.70,29.50,4,2,10,0.00
2013-6-26,92.7,78.8,65.8,53.4,45.6,37.7,49,32,20,29.76,29.68,4,1,10,0.00
2013-6-27,93.0,80.8,66.0,58.8,47.5,39.4,55,32,20,29.91,29.74,4,2,11,0.00
2013-6-28,89.6,75.6,62.4,65.2,54.3,45.5,78,49,34,29.95,29.80,7,2,10,0.19
2013-6-29,79.9,70.7,59.9,62.0,56.3,52.3,80,61,41,29.91,29.78,4,1,7,0.00
2013-6-30,76.8,69.6,64.2,60.1,56.1,53.7,74,63,50,29.88,29.82,3,1,10,0.00
2013-7-1,79.9,68.9,57.0,59.5,53.8,50.9,81,60,41,29.95,29.85,4,1,9,0.00
2013-7-2,80.8,69.4,55.8,57.9,51.7,47.6,79,55,36,29.93,29.79,4,1,14,0.00
2013-7-3,85.1,71.2,55.9,54.9,49.7,45.9,73,48,30,29.80,29.60,4,2,10,0.00
2013-7-4,88.0,74.8,61.2,58.0,50.6,44.2,65,44,29,29.68,29.60,5,2,12,0.00
2013-7-5,84.9,73.8,64.6,60.5,53.7,46.5,61,50,37,29.62,29.54,4,1,8,0.00
2013-7-6,91.2,77.4,67.3,56.3,52.2,48.4,66,43,26,29.68,29.54,6,2,13,0.03
2013-7-7,87.6,77.1,66.7,60.0,53.9,48.4,60,45,32,29.76,29.65,4,2,12,0.00
2013-7-8,92.3,78.6,65.7,60.2,52.8,45.1,72,44,21,29.77,29.69,8,2,20,0.00
2013-7-9,93.7,79.5,69.3,56.6,49.6,43.6,53,36,24,29.86,29.77,4,1,9,0.00
2013-7-10,87.6,75.3,61.2,60.5,53.2,45.7,67,47,29,29.91,29.70,5,1,9,0.00
2013-7-11,93.2,78.2,61.3,60.4,55.4,49.1,75,49,24,29.78,29.53,5,2,16,0.00
2013-7-12,92.3,76.6,68.7,62.0,55.9,49.2,74,51,30,29.76,29.60,6,2,18,0.06
2013-7-13,85.5,71.4,65.3,65.0,58.9,55.5,77,65,43,29.87,29.73,6,1,18,0.06
2013-7-14,78.8,70.3,60.1,63.1,58.6,53.2,82,67,51,29.91,29.76,5,1,9,0.00
2013-7-15,79.3,70.0,62.1,65.2,60.8,55.5,88,73,59,29.87,29.78,4,1,10,0.70
2013-7-16,80.8,68.8,55.0,57.4,53.2,50.2,86,60,38,29.87,29.79,4,1,8,0.00
2013-7-17,83.8,71.2,56.5,60.3,54.8,49.7,79,58,38,29.89,29.76,3,1,7,0.00
2013-7-18,90.0,73.4,61.3,60.5,55.7,51.2,76,56,32,29.84,29.76,6,1,12,0.00
2013-7-19,83.7,74.5,65.3,60.3,57.2,55.0,74,56,39,29.86,29.75,6,2,13,0.00
2013-7-20,86.7,71.9,58.8,60.4,54.5,50.4,79,56,35,29.76,29.64,7,2,19,0.00
2013-7-21,83.3,71.8,57.2,61.6,54.7,39.7,79,56,28,29.69,29.57,5,1,9,0.00
2013-7-22,89.1,76.9,60.8,59.7,52.4,39.0,68,44,28,29.69,29.55,4,2,11,0.00
2013-7-23,86.9,76.1,64.0,59.1,49.4,33.2,61,40,25,29.83,29.63,4,2,9,0.00
2013-7-24,82.2,72.2,64.0,62.5,55.8,50.2,74,57,40,29.87,29.71,11,2,26,0.00
2013-7-25,76.8,66.3,59.9,60.4,55.7,52.1,81,69,51,29.91,29.74,3,1,8,0.33
2013-7-26,79.5,68.6,58.5,63.4,54.2,48.6,77,61,41,29.94,29.80,5,1,11,0.14
2013-7-27,77.2,65.5,53.6,61.1,54.7,48.3,84,69,51,29.84,29.71,5,1,10,0.22
2013-7-28,71.4,64.4,60.6,62.6,58.4,56.3,88,81,68,29.78,29.61,2,0,6,0.06
2013-7-29,71.2,64.6,58.6,61.2,56.5,50.4,89,76,58,29.84,29.63,4,0,10,0.00
2013-7-30,85.3,70.9,58.6,58.6,54.4,51.1,79,58,37,29.89,29.81,4,1,9,0.00
2013-7-31,85.8,71.6,57.9,58.1,53.7,49.1,79,56,30,29.97,29.81,6,1,12,0.00
2013-8-1,86.7,69.8,58.5,66.6,57.9,52.0,81,67,38,29.89,29.66,4,0,12,0.19
2013-8-2,89.8,73.7,59.5,60.5,54.5,49.7,80,55,26,29.73,29.63,4,1,8,0.00
2013-8-3,86.2,70.7,61.9,62.6,56.6,51.1,80,62,34,29.94,29.72,9,1,17,0.03
2013-8-4,85.1,72.2,56.8,60.5,53.2,48.3,80,53,31,29.88,29.75,3,1,9,0.00
2013-8-5,84.6,70.3,59.5,60.9,52.9,46.5,67,55,37,29.78,29.68,5,1,10,0.08
2013-8-6,82.2,69.8,57.0,59.5,52.2,45.5,76,55,32,29.73,29.66,4,1,15,0.03
2013-8-7,75.2,66.6,59.5,58.4,53.1,46.9,77,63,46,29.80,29.68,3,0,7,0.00
2013-8-8,75.4,65.2,55.0,59.6,53.7,47.6,86,68,44,29.83,29.70,3,1,6,0.00
2013-8-9,80.1,66.7,56.5,56.2,51.1,46.7,77,59,36,29.86,29.79,5,1,15,0.00
2013-8-10,84.0,66.0,52.0,60.8,51.1,45.0,79,61,31,29.87,29.76,4,1,10,0.19
2013-8-11,80.4,68.8,57.6,55.9,51.6,48.7,78,56,36,29.86,29.79,5,1,11,0.00
2013-8-12,79.7,67.1,55.8,59.0,53.0,48.4,84,62,38,29.93,29.78,6,1,13,0.00
2013-8-13,75.2,65.5,54.7,56.4,51.8,46.7,81,62,46,29.89,29.79,5,1,14,0.03
2013-8-14,79.3,66.0,52.3,56.9,50.8,46.2,84,60,37,29.88,29.76,4,1,10,0.00
2013-8-15,80.1,67.0,53.6,54.8,49.1,44.2,73,54,32,29.84,29.75,3,1,6,0.00
2013-8-16,85.6,71.6,55.8,55.3,49.7,43.9,72,48,28,29.83,29.77,4,1,8,0.00
2013-8-17,88.3,71.4,56.1,57.6,49.6,41.6,77,49,21,29.82,29.69,3,0,8,0.00
2013-8-18,86.5,71.6,56.7,59.9,50.2,41.0,74,48,29,29.80,29.72,4,1,13,0.00
2013-8-19,89.4,74.0,56.8,57.7,50.0,44.0,72,45,26,29.78,29.69,4,1,9,0.00
2013-8-20,92.5,77.5,61.9,56.7,48.0,43.3,54,37,21,29.73,29.64,3,1,10,0.00
2013-8-21,88.0,75.8,65.7,63.4,52.2,44.2,62,45,30,29.83,29.71,5,2,9,0.06
2013-8-22,80.8,70.7,61.7,62.3,56.2,51.7,75,61,50,29.90,29.78,4,1,11,0.00
2013-8-23,83.1,71.5,62.2,59.8,55.2,50.2,76,57,43,29.85,29.66,6,2,12,0.03
2013-8-24,81.9,71.1,59.0,58.6,53.7,48.2,73,55,39,29.78,29.67,5,1,12,0.03
2013-8-25,84.4,73.2,60.6,57.6,53.5,47.9,71,51,35,29.82,29.76,5,1,10,0.00
2013-8-26,87.1,72.7,62.2,64.5,56.3,52.0,76,57,37,29.82,29.77,6,2,15,0.06
2013-8-27,88.3,73.8,62.8,60.2,56.2,51.8,76,56,35,29.82,29.75,4,2,12,0.00
2013-8-28,65.3,65.2,65.1,53.5,53.3,53.2,66,65,65,29.79,29.77,2,2,3,0.00
2013-8-29,88.7,79.8,65.5,59.5,52.6,47.1,57,40,28,29.86,29.77,5,2,13,0.00
2013-8-30,88.3,76.7,66.4,60.2,53.5,47.3,67,45,36,29.86,29.75,4,1,12,0.00
2013-8-31,87.1,74.2,62.2,61.6,52.4,47.9,69,47,32,29.80,29.72,6,2,13,0.00
2013-9-1,78.1,70.6,63.3,59.9,56.5,49.4,75,61,50,29.88,29.77,4,1,10,0.00
2013-9-2,85.3,72.1,59.0,61.0,56.0,51.2,83,59,32,29.82,29.70,3,1,8,0.00
2013-9-3,90.1,76.3,62.4,59.7,54.4,50.6,70,48,32,29.80,29.72,4,1,10,0.00
2013-9-4,88.0,74.9,65.1,62.6,55.1,50.1,71,51,35,29.87,29.78,3,0,11,0.00
2013-9-5,86.5,73.6,60.8,60.2,54.3,49.3,73,52,35,29.88,29.79,3,1,8,0.00
2013-9-6,89.8,76.8,64.2,59.4,52.6,48.0,66,44,30,29.84,29.72,5,1,13,0.00
2013-9-7,86.9,75.1,62.2,56.9,51.9,47.3,66,45,30,29.82,29.69,3,1,11,0.00
2013-9-8,85.8,71.9,59.5,55.1,51.3,47.4,68,49,32,29.73,29.57,4,1,11,0.00
2013-9-9,82.2,68.0,59.4,60.9,54.6,48.4,86,64,40,29.74,29.58,4,1,9,0.78
2013-9-10,67.3,62.3,60.1,59.2,57.4,55.6,88,84,73,29.87,29.72,3,0,5,0.34
2013-9-11,64.8,61.9,60.3,60.8,58.7,57.1,92,89,86,29.89,29.83,4,1,11,5.88
2013-9-12,65.7,61.7,59.5,62.2,59.0,57.2,92,91,87,29.94,29.86,4,1,10,7.14
2013-9-13,71.4,63.7,59.2,62.9,59.3,56.2,93,86,70,29.86,29.60,2,0,4,0.28
2013-9-14,70.3,63.0,56.7,61.4,56.8,53.5,90,81,63,29.71,29.58,4,0,10,0.11
2013-9-15,61.7,58.7,55.0,57.5,55.4,51.9,91,89,82,29.93,29.71,4,1,9,1.45
2013-9-16,68.5,60.2,54.9,59.5,55.3,52.0,91,84,69,29.91,29.71,3,0,6,0.11
2013-9-17,77.9,63.7,50.5,60.0,52.7,46.7,92,70,41,29.73,29.52,3,0,8,0.00
2013-9-18,79.3,67.4,56.5,55.4,49.0,43.5,76,53,39,29.59,29.49,8,2,15,0.00
2013-9-19,66.4,59.4,50.9,49.5,46.0,41.3,80,62,45,29.85,29.56,4,1,8,0.00
2013-9-20,68.2,56.8,46.4,49.7,45.8,42.2,86,68,44,29.91,29.70,4,1,7,0.00
2013-9-21,75.4,60.6,45.5,56.6,48.0,40.5,84,65,45,29.70,29.49,3,1,8,0.00
2013-9-22,76.3,64.6,55.8,57.1,48.6,40.5,81,57,43,29.49,29.31,5,1,13,0.03
2013-9-23,65.5,58.3,52.3,51.9,40.2,33.5,88,54,33,29.70,29.27,7,2,18,0.36
2013-9-24,69.4,56.1,43.0,46.9,40.2,34.6,77,57,33,29.76,29.53,3,1,7,0.00
2013-9-25,72.9,56.7,41.5,50.7,43.3,36.0,82,63,41,29.53,29.19,3,1,7,0.00
2013-9-26,64.4,55.4,45.1,47.7,44.2,39.2,83,67,49,29.48,29.26,4,1,10,0.00
2013-9-27,54.5,49.4,41.9,49.4,44.9,38.4,89,84,80,29.64,29.41,3,1,7,0.45
2013-9-28,64.0,49.6,34.5,41.8,36.1,31.4,90,63,34,29.76,29.64,5,1,11,0.00
2013-9-29,71.4,57.4,40.6,44.3,35.7,29.1,78,48,24,29.74,29.56,6,1,18,0.00
2013-9-30,77.9,63.8,52.9,50.7,40.8,32.3,61,44,28,29.58,29.46,3,1,9,0.00
2013-10-1,68.2,58.7,49.3,48.0,41.7,32.9,71,54,39,29.75,29.58,3,1,7,0.00
2013-10-2,72.5,58.1,44.8,47.4,42.7,38.0,79,59,34,29.64,29.55,4,1,10,0.00
2013-10-3,60.6,52.0,41.7,47.4,42.5,37.1,85,71,53,29.61,29.42,5,1,8,0.11
2013-10-4,50.2,41.3,32.7,45.5,35.7,27.3,86,80,66,29.79,29.45,4,1,8,0.75
2013-10-5,57.7,44.5,31.1,32.4,26.8,19.4,86,53,28,29.82,29.72,5,1,11,0.00
2013-10-6,64.6,52.1,39.9,41.5,32.1,20.6,69,47,32,29.87,29.79,4,1,10,0.00
2013-10-7,70.3,54.7,37.6,44.5,37.5,32.2,81,55,33,29.82,29.59,3,1,9,0.00
2013-10-8,72.0,59.5,50.7,45.1,37.8,30.9,64,46,26,29.59,29.43,3,1,6,0.00
2013-10-9,63.0,53.8,45.1,45.0,40.4,34.5,73,61,46,29.64,29.48,4,1,8,0.00
2013-10-10,60.4,52.6,46.6,48.5,44.3,40.8,84,74,61,29.62,29.24,6,1,12,0.08
2013-10-11,63.9,54.3,46.8,42.8,35.2,30.3,80,49,37,29.68,29.15,8,2,24,0.00
2013-10-12,54.1,47.8,41.9,41.8,38.8,36.8,83,71,59,29.81,29.68,3,1,8,0.00
2013-10-13,58.5,47.6,36.0,44.3,39.5,31.9,87,74,57,29.77,29.54,3,1,8,0.00
2013-10-14,55.2,47.0,40.6,43.1,37.7,32.3,87,71,54,29.79,29.48,6,1,14,0.06
2013-10-15,45.9,41.6,38.3,32.7,30.0,27.6,70,63,53,29.90,29.78,3,1,12,0.00
2013-10-16,52.2,39.9,28.9,34.5,29.9,24.7,84,68,48,29.82,29.63,4,1,7,0.00
2013-10-17,50.5,42.2,34.7,34.0,31.3,26.5,77,65,51,29.75,29.65,4,1,8,0.00
2013-10-18,45.9,38.1,31.8,34.9,31.0,27.8,85,76,58,29.80,29.68,4,1,8,0.31
2013-10-19,62.8,47.5,31.1,34.9,28.9,25.3,84,50,26,29.72,29.55,4,1,10,0.03
2013-10-20,53.1,44.8,34.3,37.8,31.9,26.0,86,62,35,29.76,29.51,5,1,14,0.25
2013-10-21,59.2,44.6,30.7,37.4,30.8,27.5,89,62,35,29.79,29.71,5,1,12,0.03
2013-10-22,61.5,50.2,37.9,36.8,32.8,27.8,73,52,36,29.84,29.74,5,1,15,0.00
2013-10-23,62.8,48.2,37.6,37.4,34.2,30.6,77,60,37,29.85,29.71,4,1,9,0.00
2013-10-24,52.3,42.7,33.3,39.4,35.0,29.0,84,74,59,29.89,29.81,3,0,7,0.00
2013-10-25,64.6,48.7,33.4,40.7,35.3,29.9,88,63,36,29.87,29.72,5,1,11,0.00
2013-10-26,60.3,48.0,37.0,38.9,34.3,30.3,77,60,41,29.97,29.76,3,1,7,0.00
2013-10-27,68.2,51.8,35.6,35.1,30.9,28.0,78,49,23,29.76,29.49,5,1,10,0.00
2013-10-28,48.6,39.4,34.9,34.1,31.6,29.0,85,74,49,29.70,29.52,4,2,9,0.08
2013-10-29,40.8,37.1,34.9,34.1,32.4,30.9,86,83,75,29.65,29.52,2,1,4,0.03
2013-10-30,43.9,37.0,32.7,37.0,32.2,27.6,88,82,71,29.55,29.46,2,0,6,0.31
2013-10-31,55.2,42.5,29.7,28.9,26.0,23.9,85,53,32,29.54,29.44,10,3,25,0.03
2013-11-1,52.0,42.6,31.5,35.2,27.5,23.2,78,55,34,29.82,29.53,4,1,14,0.00
2013-11-2,61.5,42.9,27.0,33.6,24.7,18.8,79,51,21,29.82,29.42,4,1,11,0.00
2013-11-3,65.5,48.7,34.5,29.7,26.7,21.5,70,44,22,29.48,29.23,5,2,10,0.00
2013-11-4,46.4,37.8,29.7,29.5,22.6,17.9,77,53,35,29.63,29.46,6,2,14,0.00
2013-11-5,45.1,33.8,25.5,25.2,17.8,9.2,71,51,26,29.73,29.53,5,1,11,0.00
2013-11-6,50.2,37.3,25.3,22.6,18.0,8.9,59,43,29,29.91,29.71,8,2,16,0.00
2013-11-7,52.3,40.4,27.9,30.1,25.4,19.1,69,54,41,29.97,29.61,4,1,9,0.00
2013-11-8,66.0,53.2,31.6,30.1,25.5,21.1,73,36,23,29.63,29.42,12,4,28,0.00
2013-11-9,61.5,49.1,35.6,34.7,29.5,23.4,71,48,27,29.86,29.62,7,2,20,0.00
2013-11-10,64.8,47.1,31.8,34.4,28.1,24.5,78,50,23,29.85,29.76,5,1,9,0.00
2013-11-11,65.3,45.2,34.2,35.3,27.6,22.9,75,51,24,30.20,29.79,8,2,19,0.00
2013-11-12,54.3,40.5,31.1,35.1,29.8,24.9,78,65,48,30.20,29.96,4,1,9,0.00
2013-11-13,67.1,49.7,30.7,33.2,24.9,20.3,80,40,22,29.96,29.65,3,1,8,0.00
2013-11-14,55.9,48.6,36.7,35.1,28.9,22.5,60,46,30,29.73,29.42,5,2,11,0.00
2013-11-15,63.5,48.4,30.4,29.2,24.8,21.1,69,41,21,29.42,29.16,8,4,19,0.00
2013-11-16,59.5,45.6,34.7,32.8,24.5,18.8,68,43,27,29.21,29.00,10,4,30,0.00
2013-11-17,55.2,42.9,31.1,25.8,21.1,18.6,60,40,24,29.68,29.20,10,3,23,0.00
2013-11-18,62.1,41.2,25.3,29.0,21.4,17.5,71,46,22,29.75,29.63,4,1,10,0.00
2013-11-19,59.5,46.7,31.5,31.4,25.3,17.9,55,42,31,29.64,29.38,5,2,12,0.00
2013-11-20,59.5,49.4,33.3,32.0,29.0,24.1,69,45,30,29.67,29.42,8,2,21,0.00
2013-11-21,33.1,21.1,17.2,25.2,14.3,10.2,77,72,63,30.11,29.67,4,2,8,0.00
2013-11-22,41.2,29.3,20.3,23.9,19.5,13.1,80,65,43,30.14,30.00,2,0,5,0.08
2013-11-23,38.5,30.7,24.3,24.6,21.4,18.8,79,66,46,30.15,29.88,3,0,6,0.08
2013-11-24,40.8,31.8,22.8,28.7,24.2,17.9,81,72,56,29.88,29.57,2,0,5,0.00
2013-11-25,44.1,35.9,27.5,29.2,25.7,21.8,79,65,45,29.89,29.63,3,1,6,0.00
2013-11-26,49.8,34.5,25.0,27.4,22.7,19.7,81,62,35,29.97,29.83,4,1,8,0.00
2013-11-27,59.9,39.4,23.4,32.0,23.5,18.2,79,55,27,29.83,29.65,6,1,13,0.00
2013-11-28,45.9,34.6,27.3,28.7,24.5,20.7,79,65,48,29.83,29.73,4,1,6,0.00
2013-11-29,60.1,44.3,29.1,30.6,25.0,19.1,79,49,25,29.78,29.69,4,1,12,0.00
2013-11-30,57.0,43.3,31.1,26.6,20.5,18.1,55,39,24,29.79,29.71,5,2,11,0.00
2013-12-1,56.1,43.6,30.0,27.7,23.5,18.3,63,44,29,29.77,29.47,7,2,18,0.00
2013-12-2,58.1,50.2,44.8,27.2,25.3,23.4,44,37,28,29.51,29.21,13,5,29,0.00
2013-12-3,55.2,38.5,14.7,31.0,21.5,8.0,73,51,34,29.40,29.13,10,4,23,0.00
2013-12-4,21.7,12.2,4.8,8.4,4.3,-1.2,75,67,51,29.63,29.37,4,2,7,0.00
2013-12-5,10.2,3.7,-5.6,-0.6,-4.0,-11.2,76,67,54,29.66,29.54,4,1,6,0.00
2013-12-6,12.7,3.0,-3.8,1.3,-4.3,-9.4,75,69,55,29.75,29.65,3,1,5,0.00
2013-12-7,17.1,5.3,-3.5,4.8,-2.4,-9.1,76,68,53,29.73,29.36,3,1,6,0.00
2013-12-8,19.6,11.9,4.5,9.5,4.6,-1.1,75,70,59,29.60,29.30,4,1,7,0.03
2013-12-9,24.1,13.4,0.0,8.2,2.6,-5.8,75,59,42,29.67,29.54,6,2,12,0.00
2013-12-10,44.4,29.5,13.8,21.4,13.4,4.8,69,49,32,29.82,29.46,13,4,25,0.11
2013-12-11,30.4,20.4,11.7,19.2,13.1,6.5,81,71,57,29.89,29.81,5,1,8,0.00
2013-12-12,47.1,27.7,14.5,23.7,16.7,9.6,81,64,36,29.86,29.56,3,1,6,0.00
2013-12-13,48.7,32.1,19.2,23.9,18.9,13.1,75,57,31,29.75,29.46,6,1,10,0.00
2013-12-14,45.1,32.5,19.2,21.6,18.0,13.6,77,54,32,29.85,29.72,7,2,14,0.00
2013-12-15,52.0,44.4,37.0,24.3,21.1,17.6,46,37,29,29.76,29.66,12,5,27,0.00
2013-12-16,59.5,47.0,33.3,23.4,19.5,16.5,48,32,18,29.84,29.67,11,3,22,0.00
2013-12-17,59.2,46.1,29.3,25.5,20.4,16.8,58,36,22,29.90,29.68,8,3,25,0.00
2013-12-18,68.0,52.4,42.1,24.6,19.9,16.9,36,27,16,29.68,29.39,6,2,11,0.00
2013-12-19,47.8,36.2,20.5,26.2,21.3,15.1,77,53,31,29.50,29.22,6,2,10,0.00
2013-12-20,29.3,23.0,17.1,20.2,16.7,12.5,80,74,64,29.49,29.29,3,1,5,0.00
2013-12-21,35.4,25.3,15.6,24.3,18.8,11.1,83,74,57,29.50,29.19,4,1,8,0.00
2013-12-22,37.9,26.0,14.0,24.2,17.4,9.8,83,68,42,29.81,29.50,7,1,12,0.00
2013-12-23,41.4,29.0,21.7,27.0,21.0,16.3,78,70,47,29.85,29.67,6,1,12,0.03
2013-12-24,50.2,40.8,27.9,32.0,21.3,10.2,57,43,30,29.87,29.55,11,4,22,0.00
2013-12-25,43.0,32.2,19.6,18.8,13.2,9.1,67,43,25,29.95,29.77,8,2,19,0.00
2013-12-26,53.6,42.8,29.7,19.7,15.5,10.3,53,31,23,29.89,29.74,11,3,22,0.00
2013-12-27,55.6,39.9,29.7,26.6,21.6,16.2,59,46,31,29.86,29.67,3,1,6,0.00
2013-12-28,57.4,38.1,25.5,29.3,22.9,19.1,74,54,30,29.81,29.50,6,2,14,0.00
2013-12-29,40.5,26.8,15.4,21.6,15.9,9.9,77,62,33,29.82,29.49,12,2,26,0.06
2013-12-30,47.7,37.3,27.5,19.9,16.7,15.0,58,40,27,29.78,29.52,11,3,23,0.00
2013-12-31,54.9,42.3,28.9,26.0,22.0,17.4,60,43,30,29.70,29.54,6,2,12,0.00
2014-1-1,43.5,35.6,22.6,31.0,24.4,17.5,79,62,43,29.88,29.51,8,2,15,0.00
2014-1-2,39.7,27.8,18.3,24.2,19.7,14.3,83,70,50,29.84,29.61,2,1,6,0.00